Time;durP1;ratioP1;P1;durP2;ratioP2;P2;SDS_P1;SDS_P2;PMS_P1;PMS_P2;Temp;Humidity;BMP_temperature;BMP_pressure;BME280_temperature;BME280_humidity;BME280_pressure;Samples;Min_cycle;Max_cycle;Signal;HPM_P1;HPM_P2
2021/09/02 00:01:34;;;;;;;12.00;7.53;;;;;;;12.29;100.00;100488.88;6296862;28;19921;-85
2021/09/02 00:04:36;;;;;;;19.70;7.45;;;;;;;12.22;100.00;100484.94;6295711;28;20040;-86
2021/09/02 00:07:37;;;;;;;13.40;7.77;;;;;;;12.22;100.00;100490.19;6279066;28;20041;-86
2021/09/02 00:10:38;;;;;;;14.18;7.85;;;;;;;12.23;100.00;100496.25;6312545;28;20509;-86
2021/09/02 00:13:39;;;;;;;15.43;7.25;;;;;;;12.30;100.00;100497.56;6278968;28;20042;-86
2021/09/02 00:16:40;;;;;;;11.85;7.60;;;;;;;12.28;100.00;100500.28;6312530;28;20054;-86
2021/09/02 00:19:41;;;;;;;16.33;8.07;;;;;;;12.30;100.00;100494.97;6295409;28;20117;-86
2021/09/02 00:22:43;;;;;;;15.48;7.95;;;;;;;12.28;100.00;100496.81;6295738;28;20040;-86
2021/09/02 00:25:44;;;;;;;13.65;8.30;;;;;;;12.27;100.00;100505.59;6295400;28;20033;-86
2021/09/02 00:28:44;;;;;;;13.15;8.43;;;;;;;12.24;100.00;100505.78;6278306;28;20036;-86
2021/09/02 00:31:46;;;;;;;18.17;9.25;;;;;;;12.16;100.00;100508.88;6294645;28;20044;-86
2021/09/02 00:34:47;;;;;;;15.93;9.10;;;;;;;12.14;100.00;100509.91;6295018;28;20040;-86
2021/09/02 00:37:47;;;;;;;16.90;9.65;;;;;;;12.14;100.00;100507.28;6294931;28;20131;-87
2021/09/02 00:40:48;;;;;;;14.00;7.88;;;;;;;12.21;100.00;100508.59;6294648;28;20059;-81
2021/09/02 00:43:49;;;;;;;15.85;7.95;;;;;;;12.17;100.00;100509.69;6278180;28;20069;-87
2021/09/02 00:46:49;;;;;;;15.23;8.45;;;;;;;12.16;100.00;100518.50;6294567;28;20040;-81
2021/09/02 00:49:51;;;;;;;13.15;9.02;;;;;;;12.13;100.00;100513.44;6278407;28;20467;-80
2021/09/02 00:52:52;;;;;;;16.45;8.50;;;;;;;12.06;100.00;100518.19;6301426;28;20047;-81
2021/09/02 00:55:53;;;;;;;12.35;8.80;;;;;;;12.03;100.00;100507.94;6302179;28;20487;-81
2021/09/02 00:58:54;;;;;;;12.18;8.10;;;;;;;11.95;100.00;100508.38;6302185;28;20445;-81
2021/09/02 01:01:55;;;;;;;15.63;8.52;;;;;;;11.85;100.00;100508.03;6285368;28;20063;-80
2021/09/02 01:04:57;;;;;;;13.52;8.27;;;;;;;11.80;100.00;100506.66;6319565;28;20041;-85
2021/09/02 01:08:00;;;;;;;12.55;8.05;;;;;;;11.75;100.00;100503.47;6285702;28;20037;-81
2021/09/02 01:11:01;;;;;;;12.70;8.18;;;;;;;11.70;100.00;100499.34;6304101;28;20102;-86
2021/09/02 01:14:01;;;;;;;11.38;7.68;;;;;;;11.76;100.00;100490.31;6285590;28;20407;-86
2021/09/02 01:17:02;;;;;;;13.95;8.18;;;;;;;11.68;100.00;100497.75;6302717;28;20406;-81
2021/09/02 01:20:05;;;;;;;11.45;7.95;;;;;;;11.57;100.00;100501.00;6302322;28;20044;-86
2021/09/02 01:23:07;;;;;;;11.10;8.05;;;;;;;11.57;100.00;100500.13;6319685;28;20036;-87
2021/09/02 01:26:19;;;;;;;11.25;8.02;;;;;;;11.57;100.00;100502.75;6303065;28;20040;-86
2021/09/02 01:29:22;;;;;;;13.48;8.35;;;;;;;11.66;100.00;100503.06;6286248;28;20040;-82
2021/09/02 01:32:25;;;;;;;13.00;7.80;;;;;;;11.61;100.00;100501.66;6303364;28;20039;-87
2021/09/02 01:35:31;;;;;;;13.70;8.52;;;;;;;11.53;100.00;100498.63;6302302;28;20395;-81
2021/09/02 01:38:32;;;;;;;10.63;7.50;;;;;;;11.50;100.00;100491.81;6302517;28;20471;-85
2021/09/02 01:41:33;;;;;;;14.60;8.40;;;;;;;11.49;100.00;100485.75;6285797;28;20048;-86
2021/09/02 01:44:33;;;;;;;13.65;7.72;;;;;;;11.48;100.00;100484.06;6302778;28;20041;-86
2021/09/02 01:47:34;;;;;;;13.30;8.07;;;;;;;11.47;100.00;100489.41;6302837;28;20040;-86
2021/09/02 01:50:40;;;;;;;14.57;8.98;;;;;;;11.42;100.00;100492.25;6302952;28;20036;-81
2021/09/02 01:53:41;;;;;;;13.43;8.50;;;;;;;11.37;100.00;100496.91;6301783;28;20056;-86
2021/09/02 01:56:42;;;;;;;16.65;8.65;;;;;;;11.37;100.00;100499.53;6320294;28;20047;-86
2021/09/02 01:59:42;;;;;;;11.43;7.80;;;;;;;11.38;100.00;100505.59;6319634;28;20041;-86
2021/09/02 02:02:44;;;;;;;13.95;8.10;;;;;;;11.37;100.00;100506.53;6300707;28;20129;-86
2021/09/02 02:05:44;;;;;;;16.95;9.43;;;;;;;11.37;100.00;100509.97;6314509;28;20044;-81
2021/09/02 02:08:45;;;;;;;11.30;7.32;;;;;;;11.37;100.00;100502.13;6298201;28;20465;-87
2021/09/02 02:11:46;;;;;;;16.55;7.22;;;;;;;11.36;100.00;100502.22;6296417;28;20032;-86
2021/09/02 02:14:47;;;;;;;17.35;8.35;;;;;;;11.32;100.00;100503.31;6240829;28;20408;-86
2021/09/02 02:17:48;;;;;;;11.60;7.55;;;;;;;11.33;100.00;100512.84;6274029;28;20041;-81
2021/09/02 02:20:48;;;;;;;14.30;7.28;;;;;;;11.39;100.00;100510.72;6271911;28;20076;-81
2021/09/02 02:23:49;;;;;;;12.43;8.18;;;;;;;11.35;100.00;100501.38;6239209;28;20408;-81
2021/09/02 02:26:50;;;;;;;12.68;7.80;;;;;;;11.26;100.00;100501.91;6239253;28;20557;-81
2021/09/02 02:29:51;;;;;;;12.15;7.93;;;;;;;11.17;100.00;100494.59;6288638;28;20041;-81
2021/09/02 02:32:52;;;;;;;11.27;7.82;;;;;;;11.11;100.00;100495.78;6273660;28;20044;-81
2021/09/02 02:35:53;;;;;;;11.30;7.78;;;;;;;11.09;100.00;100500.25;6255421;28;20182;-81
2021/09/02 02:38:54;;;;;;;12.75;7.43;;;;;;;11.14;100.00;100503.44;6241666;28;20061;-82
2021/09/02 02:41:55;;;;;;;9.68;7.47;;;;;;;11.07;100.00;100504.69;6247626;28;20151;-82
2021/09/02 02:44:56;;;;;;;13.27;7.32;;;;;;;11.03;100.00;100511.84;6280811;28;20044;-87
2021/09/02 02:47:57;;;;;;;12.65;7.63;;;;;;;11.05;100.00;100506.56;6248481;28;20047;-81
2021/09/02 02:50:58;;;;;;;10.00;7.60;;;;;;;10.99;100.00;100506.91;6246818;28;20040;-82
2021/09/02 02:53:59;;;;;;;11.32;7.57;;;;;;;10.87;100.00;100501.44;6279732;28;20439;-82
2021/09/02 02:57:00;;;;;;;11.90;8.23;;;;;;;10.84;100.00;100504.22;6246686;28;20307;-81
2021/09/02 03:00:00;;;;;;;13.70;7.80;;;;;;;10.84;100.00;100511.22;6263851;28;20040;-86
2021/09/02 03:03:01;;;;;;;9.75;7.63;;;;;;;10.87;100.00;100500.59;6270275;28;20132;-86
2021/09/02 03:06:02;;;;;;;19.15;7.10;;;;;;;10.83;100.00;100505.16;6288899;28;20082;-82
2021/09/02 03:09:03;;;;;;;11.13;7.65;;;;;;;10.84;100.00;100511.22;6271323;28;20048;-87
2021/09/02 03:12:04;;;;;;;12.23;7.63;;;;;;;10.84;100.00;100506.81;6289138;28;20093;-86
2021/09/02 03:15:07;;;;;;;14.40;8.20;;;;;;;10.80;100.00;100507.06;6271471;28;20067;-81
2021/09/02 03:18:08;;;;;;;14.63;7.65;;;;;;;10.82;100.00;100516.50;6304620;28;20052;-87
2021/09/02 03:21:09;;;;;;;19.08;7.53;;;;;;;10.80;100.00;100510.53;6305340;28;20036;-81
2021/09/02 03:24:10;;;;;;;12.82;8.25;;;;;;;10.77;100.00;100509.84;6323054;28;20082;-82
2021/09/02 03:27:11;;;;;;;13.05;8.55;;;;;;;10.74;100.00;100516.06;6270863;28;20059;-82
2021/09/02 03:30:12;;;;;;;14.65;8.45;;;;;;;10.74;100.00;100515.25;6287285;28;20051;-82
2021/09/02 03:33:13;;;;;;;12.73;7.63;;;;;;;10.73;100.00;100509.19;6276803;28;20047;-82
2021/09/02 03:36:14;;;;;;;16.25;8.27;;;;;;;10.76;100.00;100522.06;6288812;28;20406;-87
2021/09/02 03:39:14;;;;;;;13.35;8.43;;;;;;;10.82;100.00;100519.13;6271911;28;20059;-82
2021/09/02 03:42:15;;;;;;;11.95;7.57;;;;;;;10.93;100.00;100533.34;6274684;28;20045;-82
2021/09/02 03:45:16;;;;;;;12.07;7.85;;;;;;;10.90;100.00;100521.31;6278625;28;20060;-82
2021/09/02 03:48:17;;;;;;;11.02;7.25;;;;;;;10.99;100.00;100530.41;6303255;28;20146;-81
2021/09/02 03:51:18;;;;;;;13.52;7.72;;;;;;;11.05;100.00;100530.91;6301356;28;20048;-82
2021/09/02 03:54:18;;;;;;;12.32;7.57;;;;;;;11.12;100.00;100539.25;6246254;28;20045;-82
2021/09/02 03:57:19;;;;;;;14.50;6.93;;;;;;;11.17;100.00;100536.38;6261741;28;20053;-82
2021/09/02 04:00:20;;;;;;;11.82;7.68;;;;;;;11.26;100.00;100534.09;6245250;28;20036;-82
2021/09/02 04:03:21;;;;;;;12.27;7.80;;;;;;;11.35;100.00;100545.81;6277978;28;20051;-82
2021/09/02 04:06:22;;;;;;;10.32;6.78;;;;;;;11.44;100.00;100544.44;6261577;28;20041;-82
2021/09/02 04:09:23;;;;;;;9.77;6.95;;;;;;;11.55;100.00;100554.25;6262221;28;20048;-86
2021/09/02 04:12:23;;;;;;;10.40;7.65;;;;;;;11.61;100.00;100546.94;6288085;28;20093;-86
2021/09/02 04:15:24;;;;;;;12.43;7.30;;;;;;;11.53;100.00;100541.31;6270951;28;20505;-87
2021/09/02 04:18:25;;;;;;;9.38;7.18;;;;;;;11.64;100.00;100549.38;6287827;28;20039;-87
2021/09/02 04:21:26;;;;;;;14.85;8.05;;;;;;;11.69;100.00;100551.69;6288017;28;20430;-88
2021/09/02 04:24:27;;;;;;;14.75;8.05;;;;;;;11.75;100.00;100555.75;6304152;28;20116;-88
2021/09/02 04:27:29;;;;;;;10.18;7.28;;;;;;;11.78;100.00;100563.44;6287154;28;20348;-86
2021/09/02 04:30:29;;;;;;;12.43;7.32;;;;;;;11.79;100.00;100559.88;6271433;28;20046;-87
2021/09/02 04:33:30;;;;;;;10.90;7.57;;;;;;;11.80;100.00;100564.19;6303971;28;20044;-86
2021/09/02 04:36:31;;;;;;;10.45;7.07;;;;;;;11.93;100.00;100569.56;6270368;28;20051;-82
2021/09/02 04:39:32;;;;;;;9.80;7.07;;;;;;;11.94;100.00;100566.00;6302208;28;20330;-82
2021/09/02 04:42:33;;;;;;;13.03;7.83;;;;;;;11.88;100.00;100552.38;6277427;28;20090;-82
2021/09/02 04:45:34;;;;;;;15.65;7.63;;;;;;;11.81;100.00;100560.63;6277061;28;20040;-82
2021/09/02 04:48:35;;;;;;;10.80;7.70;;;;;;;11.86;100.00;100563.78;6261325;28;20441;-87
2021/09/02 04:51:36;;;;;;;9.40;7.22;;;;;;;11.91;100.00;100571.41;6262155;28;20052;-86
2021/09/02 04:54:36;;;;;;;11.40;7.57;;;;;;;11.91;100.00;100571.41;6295509;28;20376;-87
2021/09/02 04:57:37;;;;;;;13.30;8.10;;;;;;;11.89;100.00;100568.88;6299845;28;20478;-86
2021/09/02 05:00:39;;;;;;;14.27;8.95;;;;;;;11.90;100.00;100562.72;6282669;28;20032;-81
2021/09/02 05:03:40;;;;;;;13.45;8.30;;;;;;;12.02;100.00;100563.78;6285666;28;20418;-86
2021/09/02 05:06:41;;;;;;;13.82;7.60;;;;;;;12.10;100.00;100561.56;6285487;28;20048;-81
2021/09/02 05:09:41;;;;;;;10.50;7.35;;;;;;;12.15;100.00;100569.97;6260428;28;20124;-82
2021/09/02 05:12:42;;;;;;;13.52;7.40;;;;;;;12.21;100.00;100566.13;6253775;28;20119;-82
2021/09/02 05:15:43;;;;;;;9.63;7.05;;;;;;;12.24;100.00;100569.41;6285326;28;20043;-86
2021/09/02 05:18:43;;;;;;;12.32;7.53;;;;;;;12.28;100.00;100575.31;6261389;28;20041;-86
2021/09/02 05:21:44;;;;;;;13.07;7.78;;;;;;;12.35;100.00;100573.16;6277156;28;20040;-81
2021/09/02 05:24:45;;;;;;;10.90;6.80;;;;;;;12.37;100.00;100573.91;6243971;28;20040;-82
2021/09/02 05:27:46;;;;;;;11.32;7.03;;;;;;;12.42;100.00;100577.94;6244568;28;20047;-88
2021/09/02 05:30:46;;;;;;;10.18;6.75;;;;;;;12.46;100.00;100582.06;6245061;28;20550;-86
2021/09/02 05:33:47;;;;;;;14.55;6.95;;;;;;;12.50;100.00;100583.56;6260363;28;20045;-81
2021/09/02 05:36:48;;;;;;;9.80;6.70;;;;;;;12.54;100.00;100586.84;6287056;28;20525;-80
2021/09/02 05:39:49;;;;;;;10.20;6.57;;;;;;;12.58;100.00;100579.63;6264233;28;20053;-87
2021/09/02 05:42:50;;;;;;;11.30;7.10;;;;;;;12.70;100.00;100597.19;6264959;28;20497;-87
2021/09/02 05:45:50;;;;;;;13.25;6.95;;;;;;;12.77;100.00;100601.13;6264153;28;20044;-87
2021/09/02 05:48:51;;;;;;;9.75;7.15;;;;;;;12.84;100.00;100598.97;6264013;28;20037;-87
2021/09/02 05:51:52;;;;;;;17.27;6.57;;;;;;;12.88;100.00;100595.22;6281020;28;20044;-87
2021/09/02 05:54:56;;;;;;;10.52;6.47;;;;;;;12.85;100.00;100601.50;6264277;28;20547;-87
2021/09/02 05:57:57;;;;;;;10.30;6.50;;;;;;;12.84;100.00;100593.75;6248230;28;20040;-87
2021/09/02 06:00:57;;;;;;;11.60;6.50;;;;;;;12.88;100.00;100600.47;6264436;28;20045;-88
2021/09/02 06:03:59;;;;;;;10.73;6.50;;;;;;;12.85;100.00;100603.28;6247797;28;20418;-82
2021/09/02 06:07:00;;;;;;;11.68;6.95;;;;;;;12.89;100.00;100595.16;6264200;28;20043;-87
2021/09/02 06:10:01;;;;;;;11.73;7.07;;;;;;;13.04;100.00;100592.50;6280515;28;20123;-83
2021/09/02 06:13:01;;;;;;;15.25;7.32;;;;;;;13.14;100.00;100596.22;6280504;28;20544;-83
2021/09/02 06:16:03;;;;;;;9.55;6.80;;;;;;;13.20;100.00;100595.84;6280301;28;20063;-87
2021/09/02 06:19:04;;;;;;;9.77;6.50;;;;;;;13.31;100.00;100597.81;6280337;28;20048;-83
2021/09/02 06:22:05;;;;;;;9.30;6.65;;;;;;;13.39;100.00;100599.94;6280217;28;20040;-83
2021/09/02 06:25:07;;;;;;;11.88;6.65;;;;;;;13.51;100.00;100599.16;6280107;28;20037;-83
2021/09/02 06:28:09;;;;;;;9.82;7.13;;;;;;;13.64;100.00;100602.66;6263867;28;20162;-83
2021/09/02 06:31:12;;;;;;;12.32;6.70;;;;;;;13.72;100.00;100598.69;6248655;28;20546;-87
2021/09/02 06:34:13;;;;;;;9.10;6.38;;;;;;;13.83;100.00;100611.94;6280399;28;20036;-86
2021/09/02 06:37:14;;;;;;;10.90;6.88;;;;;;;13.88;100.00;100607.25;6263566;28;20127;-87
2021/09/02 06:40:15;;;;;;;20.63;7.50;;;;;;;14.00;100.00;100618.69;6247077;28;20131;-88
2021/09/02 06:43:17;;;;;;;10.98;6.45;;;;;;;14.08;100.00;100616.41;6280296;28;20048;-88
2021/09/02 06:46:18;;;;;;;11.07;7.07;;;;;;;14.26;100.00;100615.16;6263568;28;20395;-88
2021/09/02 06:49:20;;;;;;;9.82;6.63;;;;;;;14.54;100.00;100621.19;6246462;28;20039;-84
2021/09/02 06:52:21;;;;;;;10.07;6.85;;;;;;;14.65;100.00;100616.03;6280323;28;20067;-88
2021/09/02 06:55:22;;;;;;;10.95;6.38;;;;;;;14.85;100.00;100627.81;6263386;28;20479;-88
2021/09/02 06:58:23;;;;;;;10.90;6.65;;;;;;;14.99;100.00;100631.25;6280055;28;20049;-88
2021/09/02 07:01:30;;;;;;;12.15;7.13;;;;;;;15.08;100.00;100620.09;6279717;28;20040;-84
2021/09/02 07:04:30;;;;;;;10.18;6.50;;;;;;;15.14;100.00;100629.34;6279879;28;20056;-84
2021/09/02 07:07:31;;;;;;;12.95;7.22;;;;;;;15.23;100.00;100633.94;6246159;28;20402;-83
2021/09/02 07:10:32;;;;;;;12.18;6.55;;;;;;;15.22;100.00;100650.66;6245897;28;20127;-83
2021/09/02 07:13:33;;;;;;;12.10;7.25;;;;;;;15.21;100.00;100643.72;6246039;28;20044;-83
2021/09/02 07:16:33;;;;;;;10.48;7.10;;;;;;;15.26;100.00;100649.50;6295754;28;20449;-88
2021/09/02 07:19:34;;;;;;;9.85;6.10;;;;;;;15.38;100.00;100643.34;6262854;28;20181;-89
2021/09/02 07:22:35;;;;;;;11.27;5.82;;;;;;;15.53;100.00;100649.31;6296951;28;20051;-88
2021/09/02 07:25:36;;;;;;;11.63;6.10;;;;;;;15.62;100.00;100653.88;6295285;28;20075;-83
2021/09/02 07:28:36;;;;;;;10.73;6.50;;;;;;;15.67;100.00;100661.47;6278963;28;20498;-87
2021/09/02 07:31:39;;;;;;;15.07;5.78;;;;;;;15.76;100.00;100662.59;6262946;28;20446;-83
2021/09/02 07:34:39;;;;;;;9.10;5.10;;;;;;;15.86;97.15;100663.63;6296796;28;20483;-87
2021/09/02 07:37:41;;;;;;;7.72;5.07;;;;;;;16.01;97.00;100659.81;6247496;28;20036;-87
2021/09/02 07:40:42;;;;;;;13.60;4.60;;;;;;;16.17;92.11;100663.97;6262716;28;20049;-86
2021/09/02 07:43:42;;;;;;;6.97;4.20;;;;;;;16.39;90.02;100677.19;6295365;28;20079;-83
2021/09/02 07:46:43;;;;;;;7.20;4.28;;;;;;;16.65;91.96;100671.72;6245256;28;20090;-83
2021/09/02 07:49:44;;;;;;;5.50;4.28;;;;;;;16.82;85.36;100671.31;6278035;28;20044;-81
2021/09/02 07:52:45;;;;;;;8.32;4.05;;;;;;;17.09;86.23;100683.28;6244979;28;20071;-83
2021/09/02 07:55:46;;;;;;;6.97;3.60;;;;;;;17.20;82.74;100683.28;6278437;28;20101;-86
2021/09/02 07:58:46;;;;;;;6.32;4.05;;;;;;;17.23;82.36;100688.31;6261861;28;20089;-81
2021/09/02 08:01:47;;;;;;;5.93;3.85;;;;;;;17.25;77.75;100694.28;6277972;28;20040;-85
2021/09/02 08:04:48;;;;;;;5.80;3.33;;;;;;;17.14;78.99;100689.03;6262705;28;20094;-82
2021/09/02 08:07:53;;;;;;;4.88;3.03;;;;;;;17.06;74.93;100692.28;6277923;28;20033;-88
2021/09/02 08:10:54;;;;;;;6.45;3.25;;;;;;;17.11;75.89;100695.41;6278350;28;20506;-83
2021/09/02 08:13:56;;;;;;;5.25;3.25;;;;;;;17.06;74.44;100691.44;6277738;28;20053;-82
2021/09/02 08:16:56;;;;;;;8.13;3.08;;;;;;;17.07;77.67;100691.31;6277617;28;20399;-81
2021/09/02 08:19:57;;;;;;;6.22;3.67;;;;;;;17.16;78.06;100699.47;6295324;28;20047;-82
2021/09/02 08:22:58;;;;;;;6.18;3.17;;;;;;;17.31;75.90;100693.81;6295334;28;20037;-82
2021/09/02 08:25:59;;;;;;;5.38;2.97;;;;;;;17.36;72.34;100690.84;6277226;28;20068;-83
2021/09/02 08:29:01;;;;;;;3.78;2.63;;;;;;;17.46;74.01;100690.91;6244487;28;20551;-82
2021/09/02 08:32:02;;;;;;;10.68;3.47;;;;;;;17.47;75.17;100684.69;6277255;28;20048;-82
2021/09/02 08:35:04;;;;;;;4.20;2.83;;;;;;;17.58;74.70;100689.94;6277515;28;20463;-82
2021/09/02 08:38:08;;;;;;;7.07;2.90;;;;;;;17.67;77.10;100681.28;6278945;28;20040;-86
2021/09/02 08:41:09;;;;;;;3.63;2.63;;;;;;;17.75;74.64;100685.97;6278902;28;20057;-87
2021/09/02 08:44:10;;;;;;;8.10;3.07;;;;;;;17.85;76.89;100688.69;6278913;28;20132;-82
2021/09/02 08:47:12;;;;;;;3.57;2.93;;;;;;;17.85;71.60;100683.41;6260481;28;20090;-82
2021/09/02 08:50:14;;;;;;;4.63;2.80;;;;;;;17.74;70.94;100689.53;6277874;28;20041;-87
2021/09/02 08:53:15;;;;;;;5.72;3.30;;;;;;;17.64;76.49;100699.16;6277985;28;20048;-83
2021/09/02 08:56:16;;;;;;;3.97;2.70;;;;;;;17.61;78.17;100694.97;6277015;28;20052;-82
2021/09/02 08:59:17;;;;;;;4.68;2.70;;;;;;;17.65;72.72;100700.84;6260703;28;20123;-83
2021/09/02 09:02:29;;;;;;;5.53;3.03;;;;;;;17.72;72.54;100702.03;6277475;28;20044;-87
2021/09/02 09:05:33;;;;;;;5.53;2.97;;;;;;;17.81;74.23;100698.66;6294390;28;20036;-83
2021/09/02 09:08:40;;;;;;;4.68;3.03;;;;;;;17.97;81.84;100703.53;6277760;28;20047;-87
2021/09/02 09:11:49;;;;;;;9.15;2.83;;;;;;;17.85;73.33;100692.19;6294949;28;20127;-87
2021/09/02 09:14:57;;;;;;;5.28;2.65;;;;;;;18.03;78.63;100691.63;6283577;28;20032;-87
2021/09/02 09:18:18;;;;;;;6.63;2.97;;;;;;;18.10;75.38;100695.47;6249347;28;20540;-87
2021/09/02 09:21:19;;;;;;;6.22;3.20;;;;;;;18.57;77.20;100692.44;6299281;28;20040;-82
2021/09/02 09:24:20;;;;;;;5.90;3.37;;;;;;;18.86;69.28;100695.28;6248733;28;20198;-82
2021/09/02 09:27:24;;;;;;;4.78;2.78;;;;;;;19.15;64.64;100691.91;6281610;28;20109;-82
2021/09/02 09:30:28;;;;;;;5.28;3.13;;;;;;;19.63;67.19;100686.78;6284090;28;20470;-88
2021/09/02 09:33:28;;;;;;;7.07;3.17;;;;;;;20.08;67.00;100680.97;6283845;28;20052;-89
2021/09/02 09:36:31;;;;;;;7.33;3.47;;;;;;;20.34;62.06;100669.78;6234081;28;20071;-87
2021/09/02 09:39:37;;;;;;;3.30;2.30;;;;;;;19.97;59.44;100677.63;6282882;28;20415;-86
2021/09/02 09:43:09;;;;;;;5.57;2.80;;;;;;;20.08;58.47;100685.44;6282583;28;20424;-85
2021/09/02 09:46:13;;;;;;;4.25;2.95;;;;;;;20.04;55.09;100678.75;6281695;28;20060;-83
2021/09/02 09:49:14;;;;;;;5.50;2.70;;;;;;;20.25;55.32;100686.53;6264348;28;20374;-82
2021/09/02 09:52:19;;;;;;;5.73;2.93;;;;;;;20.64;58.55;100682.03;6280932;28;20047;-83
2021/09/02 09:55:20;;;;;;;3.88;2.55;;;;;;;20.69;60.25;100687.75;6280871;28;20403;-81
2021/09/02 09:58:22;;;;;;;4.32;2.60;;;;;;;20.79;52.59;100677.09;6264512;28;20061;-83
2021/09/02 10:01:26;;;;;;;4.35;2.92;;;;;;;20.39;56.98;100688.75;6280968;28;20086;-84
2021/09/02 10:04:28;;;;;;;6.43;2.97;;;;;;;20.93;53.07;100681.94;6280907;28;20124;-82
2021/09/02 10:07:30;;;;;;;4.45;2.88;;;;;;;20.72;52.63;100684.81;6280821;28;20053;-82
2021/09/02 10:10:31;;;;;;;5.00;2.80;;;;;;;20.59;55.00;100681.66;6280561;28;20041;-83
2021/09/02 10:13:32;;;;;;;10.00;3.20;;;;;;;20.81;53.91;100692.88;6280519;28;20090;-82
2021/09/02 10:16:33;;;;;;;9.45;3.03;;;;;;;21.38;52.20;100679.50;6298376;28;20041;-83
2021/09/02 10:19:35;;;;;;;4.43;3.33;;;;;;;21.46;53.91;100682.28;6280521;28;20118;-83
2021/09/02 10:22:36;;;;;;;7.13;3.83;;;;;;;20.82;54.09;100692.75;6264026;28;20277;-81
2021/09/02 10:25:38;;;;;;;5.47;3.53;;;;;;;21.49;54.68;100690.78;6279380;28;20470;-82
2021/09/02 10:28:39;;;;;;;5.03;3.45;;;;;;;21.46;52.61;100691.09;6280043;28;20037;-82
2021/09/02 10:31:40;;;;;;;6.93;3.17;;;;;;;21.89;56.18;100686.06;6246848;28;20454;-82
2021/09/02 10:34:40;;;;;;;8.90;3.73;;;;;;;21.55;53.89;100686.69;6264287;28;20037;-88
2021/09/02 10:37:43;;;;;;;15.33;3.73;;;;;;;20.85;54.25;100689.78;6264840;28;20102;-88
2021/09/02 10:40:45;;;;;;;7.95;3.58;;;;;;;20.47;55.92;100686.25;6280101;28;20068;-88
2021/09/02 10:43:51;;;;;;;5.57;3.78;;;;;;;20.18;57.51;100682.78;6280767;28;20422;-87
2021/09/02 10:46:54;;;;;;;6.97;3.70;;;;;;;19.97;55.75;100704.09;6281260;28;20069;-86
2021/09/02 10:50:02;;;;;;;5.47;3.80;;;;;;;20.11;56.68;100691.28;6296176;28;20059;-87
2021/09/02 10:53:10;;;;;;;4.78;3.05;;;;;;;20.67;57.36;100684.41;6297726;28;20045;-85
2021/09/02 10:56:11;;;;;;;5.38;3.47;;;;;;;20.31;56.48;100693.94;6279940;28;20136;-87
2021/09/02 10:59:35;;;;;;;6.03;3.30;;;;;;;20.07;61.64;100695.19;6262984;28;20048;-84
2021/09/02 11:02:39;;;;;;;6.75;3.13;;;;;;;19.81;59.34;100694.06;6279369;28;20105;-85
2021/09/02 11:05:42;;;;;;;4.82;3.28;;;;;;;19.53;59.94;100705.28;6279350;28;20125;-86
2021/09/02 11:08:44;;;;;;;5.15;3.08;;;;;;;19.39;59.76;100707.47;6295890;28;20040;-87
2021/09/02 11:11:50;;;;;;;4.18;3.08;;;;;;;19.24;58.67;100704.34;6296589;28;20051;-85
2021/09/02 11:14:51;;;;;;;5.45;3.08;;;;;;;18.95;57.36;100698.97;6296142;28;20041;-87
2021/09/02 11:17:54;;;;;;;4.07;3.23;;;;;;;19.34;58.34;100699.94;6262727;28;20606;-86
2021/09/02 11:20:55;;;;;;;5.22;3.08;;;;;;;20.13;55.25;100683.19;6279427;28;20123;-84
2021/09/02 11:24:04;;;;;;;5.90;2.87;;;;;;;20.93;50.80;100692.56;6279207;28;20041;-86
2021/09/02 11:27:06;;;;;;;6.72;2.95;;;;;;;21.11;51.61;100689.16;6297048;28;20044;-81
2021/09/02 11:30:25;;;;;;;3.80;2.30;;;;;;;21.24;49.03;100694.09;6278855;28;20043;-83
2021/09/02 11:33:26;;;;;;;4.30;2.70;;;;;;;20.98;49.56;100688.63;6279360;28;20045;-81
2021/09/02 11:36:27;;;;;;;4.70;2.80;;;;;;;21.29;48.38;100690.03;6262035;28;20055;-82
2021/09/02 11:39:31;;;;;;;4.93;2.50;;;;;;;21.75;48.93;100671.47;6295064;28;20538;-82
2021/09/02 11:42:32;;;;;;;3.83;2.55;;;;;;;21.88;46.05;100677.22;6295148;28;20051;-84
2021/09/02 11:45:35;;;;;;;6.85;2.40;;;;;;;21.64;50.24;100677.84;6278640;28;20064;-82
2021/09/02 11:48:46;;;;;;;3.17;2.15;;;;;;;20.90;48.83;100690.19;6279563;28;20131;-84
2021/09/02 11:51:55;;;;;;;7.97;2.42;;;;;;;20.54;49.44;100678.53;6278327;28;20036;-82
2021/09/02 11:54:56;;;;;;;4.97;2.53;;;;;;;20.82;49.70;100679.47;6278281;28;20129;-82
2021/09/02 11:58:07;;;;;;;3.33;2.30;;;;;;;20.37;50.65;100677.47;6261598;28;20482;-81
2021/09/02 12:01:08;;;;;;;7.97;2.50;;;;;;;20.14;51.16;100684.88;6278482;28;20064;-82
2021/09/02 12:04:19;;;;;;;3.43;2.30;;;;;;;20.07;54.77;100689.06;6278166;28;20118;-81
2021/09/02 12:07:20;;;;;;;6.50;2.90;;;;;;;19.92;54.74;100686.81;6277852;28;20296;-82
2021/09/02 12:10:22;;;;;;;8.33;2.80;;;;;;;20.10;54.73;100683.50;6261443;28;20068;-82
2021/09/02 12:13:24;;;;;;;;;;;;;;;20.87;54.34;100681.69;6278414;28;20036;-82
2021/09/02 12:16:32;;;;;;;5.25;2.63;;;;;;;21.29;50.06;100683.88;6277806;28;19924;-81
2021/09/02 12:19:51;;;;;;;3.80;2.42;;;;;;;21.68;50.02;100681.00;6294273;28;20617;-81
2021/09/02 12:22:52;;;;;;;3.47;2.13;;;;;;;21.97;47.48;100675.50;6277703;28;20051;-84
2021/09/02 12:26:03;;;;;;;4.17;2.50;;;;;;;22.01;45.53;100673.34;6260965;28;20485;-80
2021/09/02 12:29:14;;;;;;;2.97;2.13;;;;;;;21.81;43.37;100662.91;6277550;28;20065;-83
2021/09/02 12:32:17;;;;;;;8.02;2.58;;;;;;;21.59;46.60;100677.44;6295267;28;20045;-82
2021/09/02 12:35:19;;;;;;;5.07;2.60;;;;;;;21.32;46.84;100671.13;6277583;28;20143;-86
2021/09/02 12:38:38;;;;;;;2.35;1.90;;;;;;;20.98;46.89;100672.72;6295155;28;20406;-84
2021/09/02 12:41:41;;;;;;;4.72;1.90;;;;;;;20.58;48.46;100669.34;6277128;28;20080;-84
2021/09/02 12:44:44;;;;;;;4.50;2.20;;;;;;;20.35;49.28;100673.28;6260732;28;20051;-82
2021/09/02 12:47:58;;;;;;;3.55;2.20;;;;;;;20.46;53.95;100675.78;6276670;28;20068;-85
2021/09/02 12:51:00;;;;;;;3.22;2.08;;;;;;;20.38;47.58;100668.53;6295010;28;20037;-83
2021/09/02 12:54:00;;;;;;;2.83;2.13;;;;;;;20.38;46.54;100673.00;6277004;28;20368;-83
2021/09/02 12:57:01;;;;;;;2.80;2.03;;;;;;;20.43;46.84;100668.94;6244376;28;20454;-84
2021/09/02 13:00:06;;;;;;;5.27;2.40;;;;;;;20.37;49.21;100676.63;6244190;28;20131;-84
2021/09/02 13:03:10;;;;;;;4.32;2.33;;;;;;;20.33;48.64;100666.31;6293914;28;20040;-84
2021/09/02 13:06:10;;;;;;;4.63;2.10;;;;;;;20.81;48.44;100675.13;6277351;28;20048;-83
2021/09/02 13:09:11;;;;;;;5.50;2.23;;;;;;;21.21;48.51;100675.81;6260339;28;20146;-84
2021/09/02 13:12:12;;;;;;;2.73;2.10;;;;;;;21.45;46.16;100675.28;6260551;28;20067;-82
2021/09/02 13:15:13;;;;;;;4.77;2.17;;;;;;;21.48;48.27;100670.53;6276874;28;20044;-84
2021/09/02 13:18:14;;;;;;;4.30;2.30;;;;;;;21.59;49.06;100673.97;6243844;28;20533;-83
2021/09/02 13:21:15;;;;;;;4.07;2.50;;;;;;;21.38;48.30;100676.84;6260315;28;20040;-83
2021/09/02 13:24:16;;;;;;;2.87;2.13;;;;;;;20.93;50.17;100671.31;6276732;28;20037;-84
2021/09/02 13:27:17;;;;;;;7.83;2.70;;;;;;;20.41;50.62;100665.59;6260186;28;20094;-83
2021/09/02 13:30:19;;;;;;;3.03;2.37;;;;;;;20.50;51.81;100667.38;6260115;28;20044;-82
2021/09/02 13:33:20;;;;;;;3.78;2.38;;;;;;;20.31;52.35;100670.91;6277062;28;20040;-82
2021/09/02 13:36:22;;;;;;;5.53;2.43;;;;;;;20.18;51.43;100669.53;6276656;28;20154;-83
2021/09/02 13:39:23;;;;;;;;;;;;;;;20.20;51.98;100673.72;6260424;28;20068;-82
2021/09/02 13:42:24;;;;;;;2.97;2.30;;;;;;;20.23;50.39;100665.47;6276407;28;19920;-84
2021/09/02 13:45:24;;;;;;;3.03;2.40;;;;;;;20.35;49.57;100668.81;6276700;28;20086;-83
2021/09/02 13:48:25;;;;;;;4.80;2.17;;;;;;;20.44;51.23;100670.59;6259986;28;20439;-83
2021/09/02 13:51:26;;;;;;;3.97;2.30;;;;;;;20.35;50.55;100671.47;6259900;28;20090;-83
2021/09/02 13:54:28;;;;;;;2.83;2.30;;;;;;;20.43;49.65;100674.25;6259909;28;20037;-83
2021/09/02 13:57:29;;;;;;;5.82;2.38;;;;;;;20.23;50.54;100685.84;6260058;28;20453;-84